createdAt,value
2022-12-20T00:00:51.815Z,7.97
2022-12-20T00:03:18.938Z,7.94
2022-12-20T00:05:45.559Z,7.93
2022-12-20T00:08:12.437Z,7.84
2022-12-20T00:10:44.459Z,7.78
2022-12-20T00:13:12.486Z,7.72
2022-12-20T00:15:38.969Z,7.77
2022-12-20T00:18:05.536Z,7.78
2022-12-20T00:20:32.051Z,7.96
2022-12-20T00:22:58.437Z,8.00
2022-12-20T00:25:25.387Z,7.92
2022-12-20T00:27:51.967Z,7.95
2022-12-20T00:30:19.392Z,7.96
2022-12-20T00:32:46.707Z,8.05
2022-12-20T00:35:13.857Z,8.07
2022-12-20T00:37:40.282Z,8.10
2022-12-20T00:40:07.713Z,8.12
2022-12-20T00:42:34.113Z,8.03
2022-12-20T00:45:00.608Z,8.05
2022-12-20T00:47:27.066Z,8.01
2022-12-20T00:49:53.622Z,8.00
2022-12-20T00:52:20.046Z,7.89
2022-12-20T00:54:46.467Z,7.92
2022-12-20T00:57:12.909Z,7.93
2022-12-20T00:59:39.307Z,8.00
2022-12-20T01:02:05.980Z,8.03
2022-12-20T01:04:32.671Z,7.93
2022-12-20T01:06:59.077Z,7.84
2022-12-20T01:09:25.584Z,7.83
2022-12-20T01:11:52.037Z,8.06
2022-12-20T01:14:18.504Z,8.01
2022-12-20T01:16:46.839Z,8.09
2022-12-20T01:19:15.735Z,7.98
2022-12-20T01:21:44.882Z,7.97
2022-12-20T01:24:13.203Z,8.06
2022-12-20T01:26:39.962Z,8.03
2022-12-20T01:29:06.683Z,8.03
2022-12-20T01:31:33.615Z,8.05
2022-12-20T01:34:00.923Z,7.86
2022-12-20T01:36:30.712Z,7.91
2022-12-20T01:38:58.862Z,7.89
2022-12-20T01:41:25.827Z,8.00
2022-12-20T01:43:59.245Z,8.01
2022-12-20T01:46:30.989Z,8.10
2022-12-20T01:49:00.177Z,7.93
2022-12-20T01:51:29.489Z,7.86
2022-12-20T01:54:10.441Z,8.04
2022-12-20T01:56:38.908Z,8.07
2022-12-20T01:59:05.614Z,8.10
2022-12-20T02:01:32.557Z,8.04
2022-12-20T02:03:59.186Z,8.11
2022-12-20T02:06:27.915Z,8.17
2022-12-20T02:08:57.492Z,8.01
2022-12-20T02:11:26.940Z,8.18
2022-12-20T02:14:25.695Z,8.28
2022-12-20T02:17:02.324Z,8.21
2022-12-20T02:19:41.060Z,8.06
2022-12-20T02:22:13.678Z,8.13
2022-12-20T02:25:17.840Z,8.23
2022-12-20T02:27:53.050Z,8.21
2022-12-20T02:30:26.857Z,8.18
2022-12-20T02:33:03.273Z,8.11
2022-12-20T02:35:33.392Z,8.05
2022-12-20T02:38:02.966Z,8.05
2022-12-20T02:40:41.248Z,8.14
2022-12-20T02:43:29.032Z,8.09
2022-12-20T02:45:58.675Z,8.15
2022-12-20T02:48:29.294Z,8.16
2022-12-20T02:50:59.917Z,8.16
2022-12-20T02:53:26.674Z,8.10
2022-12-20T02:56:09.920Z,8.08
2022-12-20T02:58:45.094Z,8.05
2022-12-20T03:01:21.643Z,8.02
2022-12-20T03:03:48.781Z,8.03
2022-12-20T03:06:15.204Z,8.16
2022-12-20T03:08:41.640Z,8.10
2022-12-20T03:11:08.049Z,8.00
2022-12-20T03:13:34.512Z,8.10
2022-12-20T03:16:01.052Z,8.12
2022-12-20T03:18:27.578Z,8.22
2022-12-20T03:20:54.160Z,8.24
2022-12-20T03:23:22.150Z,8.29
2022-12-20T03:25:48.905Z,8.38
2022-12-20T03:28:15.534Z,8.39
2022-12-20T03:30:42.248Z,8.41
2022-12-20T03:33:10.045Z,8.35
2022-12-20T03:35:36.454Z,8.31
2022-12-20T03:38:02.991Z,8.22
2022-12-20T03:40:29.445Z,8.28
2022-12-20T03:42:55.984Z,8.26
2022-12-20T03:45:22.396Z,8.39
2022-12-20T03:47:49.798Z,8.40
2022-12-20T03:50:16.466Z,8.53
2022-12-20T03:52:42.907Z,8.48
2022-12-20T03:55:10.143Z,8.49
2022-12-20T03:57:36.643Z,8.44
2022-12-20T04:00:04.147Z,8.45
2022-12-20T04:02:30.685Z,8.40
2022-12-20T04:04:57.223Z,8.50
2022-12-20T04:07:23.789Z,8.58
2022-12-20T04:09:50.257Z,8.49
2022-12-20T04:12:16.690Z,8.61
2022-12-20T04:14:43.190Z,8.47
2022-12-20T04:17:09.849Z,8.51
2022-12-20T04:19:36.429Z,8.55
2022-12-20T04:22:06.099Z,8.69
2022-12-20T04:24:32.859Z,8.52
2022-12-20T04:26:59.363Z,8.49
2022-12-20T04:29:25.842Z,8.50
2022-12-20T04:31:52.455Z,8.37
2022-12-20T04:34:19.167Z,8.54
2022-12-20T04:36:45.717Z,8.47
2022-12-20T04:39:12.245Z,8.45
2022-12-20T04:41:38.732Z,8.41
2022-12-20T04:44:05.225Z,8.31
2022-12-20T04:46:31.730Z,8.49
2022-12-20T04:48:59.560Z,8.44
2022-12-20T04:51:27.747Z,8.38
2022-12-20T04:53:54.704Z,8.28
2022-12-20T04:56:24.483Z,8.31
2022-12-20T04:58:52.852Z,8.25
2022-12-20T05:01:20.193Z,8.22
2022-12-20T05:03:47.453Z,8.26
2022-12-20T05:06:14.643Z,8.28
2022-12-20T05:08:41.598Z,8.25
2022-12-20T05:11:08.888Z,8.26
2022-12-20T05:13:35.600Z,8.26
2022-12-20T05:16:02.147Z,8.29
2022-12-20T05:18:28.914Z,8.40
2022-12-20T05:21:15.893Z,8.41
2022-12-20T05:24:01.104Z,8.28
2022-12-20T05:26:30.719Z,8.42
2022-12-20T05:28:57.196Z,8.29
2022-12-20T05:31:23.784Z,8.38
2022-12-20T05:33:50.297Z,8.25
2022-12-20T05:36:16.865Z,8.27
2022-12-20T05:38:43.315Z,8.46
2022-12-20T05:41:09.712Z,8.39
2022-12-20T05:43:36.173Z,8.45
2022-12-20T05:46:02.670Z,8.39
2022-12-20T05:48:29.162Z,8.40
2022-12-20T05:50:55.608Z,8.30
2022-12-20T05:53:22.114Z,8.28
2022-12-20T05:55:50.482Z,8.27
2022-12-20T05:58:17.648Z,8.22
2022-12-20T06:00:45.122Z,8.33
2022-12-20T06:03:12.099Z,8.47
2022-12-20T06:05:39.296Z,8.47
2022-12-20T06:08:06.518Z,8.64
2022-12-20T06:10:34.753Z,8.52
2022-12-20T06:13:02.331Z,8.40
2022-12-20T06:15:29.260Z,8.54
2022-12-20T06:17:55.756Z,8.54
2022-12-20T06:20:22.145Z,8.53
2022-12-20T06:22:48.946Z,8.54
2022-12-20T06:25:15.771Z,8.50
2022-12-20T06:27:42.971Z,8.56
2022-12-20T06:30:10.845Z,8.55
2022-12-20T06:32:38.532Z,8.57
2022-12-20T06:35:05.964Z,8.54
2022-12-20T06:37:32.581Z,8.67
2022-12-20T06:40:00.088Z,8.54
2022-12-20T06:42:26.712Z,8.57
2022-12-20T06:44:53.177Z,8.57
2022-12-20T06:47:19.905Z,8.60
2022-12-20T06:49:46.330Z,8.55
2022-12-20T06:52:12.915Z,8.67
2022-12-20T06:54:39.325Z,8.71
2022-12-20T06:57:06.894Z,8.72
2022-12-20T06:59:33.486Z,8.66
2022-12-20T07:02:00.243Z,8.72
2022-12-20T07:04:27.016Z,8.67
2022-12-20T07:06:53.883Z,8.65
2022-12-20T07:09:20.398Z,8.60
2022-12-20T07:11:46.954Z,8.58
2022-12-20T07:14:13.444Z,8.64
2022-12-20T07:16:42.801Z,8.65
2022-12-20T07:19:12.261Z,8.72
2022-12-20T07:21:38.819Z,8.82
2022-12-20T07:24:06.050Z,8.88
2022-12-20T07:26:32.542Z,8.85
2022-12-20T07:28:58.940Z,9.06
2022-12-20T07:31:25.458Z,8.96
2022-12-20T07:33:52.513Z,8.94
2022-12-20T07:36:19.053Z,8.98
2022-12-20T07:38:46.054Z,9.05
2022-12-20T07:41:15.039Z,8.97
2022-12-20T07:43:42.106Z,8.86
2022-12-20T07:46:09.259Z,8.93
2022-12-20T07:48:36.194Z,9.09
2022-12-20T07:51:11.874Z,9.05
2022-12-20T07:53:43.026Z,9.03
2022-12-20T07:56:11.935Z,9.05
2022-12-20T07:58:40.868Z,8.99
2022-12-20T08:01:10.261Z,9.01
2022-12-20T08:03:42.984Z,8.92
2022-12-20T08:06:09.978Z,8.80
2022-12-20T08:08:41.407Z,8.76
2022-12-20T08:11:09.903Z,8.71
2022-12-20T08:13:42.504Z,8.66
2022-12-20T08:16:12.444Z,8.70
2022-12-20T08:18:38.907Z,8.49
2022-12-20T08:21:05.654Z,8.50
2022-12-20T08:23:32.498Z,8.49
2022-12-20T08:26:01.649Z,8.49
2022-12-20T08:28:28.169Z,8.51
2022-12-20T08:31:00.945Z,8.50
2022-12-20T08:33:27.449Z,8.49
2022-12-20T08:35:59.539Z,8.40
2022-12-20T08:38:27.801Z,8.52
2022-12-20T08:40:54.221Z,8.49
2022-12-20T08:43:20.745Z,8.51
2022-12-20T08:45:53.997Z,8.50
2022-12-20T08:48:20.609Z,8.44
2022-12-20T08:50:47.607Z,8.39
2022-12-20T08:53:14.099Z,8.40
2022-12-20T08:55:40.637Z,8.41
2022-12-20T08:58:07.411Z,8.41
2022-12-20T09:00:33.970Z,8.41
2022-12-20T09:03:00.568Z,8.39
2022-12-20T09:05:28.133Z,8.32
2022-12-20T09:07:54.553Z,8.34
2022-12-20T09:10:21.179Z,8.44
2022-12-20T09:12:47.598Z,8.44
2022-12-20T09:15:14.287Z,8.43
2022-12-20T09:17:41.766Z,8.46
2022-12-20T09:20:08.616Z,8.44
2022-12-20T09:22:35.183Z,8.55
2022-12-20T09:25:01.633Z,8.56
2022-12-20T09:27:30.847Z,8.43
2022-12-20T09:29:57.283Z,8.40
2022-12-20T09:32:23.666Z,8.42
2022-12-20T09:34:50.146Z,8.49
2022-12-20T09:37:16.561Z,8.46
2022-12-20T09:39:42.973Z,8.54
2022-12-20T09:42:09.821Z,8.54
2022-12-20T09:44:40.119Z,8.48
2022-12-20T09:47:20.719Z,8.53
2022-12-20T09:49:50.743Z,8.53
2022-12-20T09:52:51.985Z,8.50
2022-12-20T09:55:39.215Z,8.46
2022-12-20T09:58:36.893Z,8.42
2022-12-20T10:01:24.974Z,8.50
2022-12-20T10:03:53.240Z,8.62
2022-12-20T10:06:40.660Z,8.48
2022-12-20T10:09:47.711Z,8.50
2022-12-20T10:12:29.136Z,8.44
2022-12-20T10:15:05.953Z,8.45
2022-12-20T10:17:47.008Z,8.50
2022-12-20T10:20:28.381Z,8.41
2022-12-20T10:23:33.774Z,8.52
2022-12-20T10:26:01.105Z,8.46
2022-12-20T10:28:30.351Z,8.46
2022-12-20T10:31:03.469Z,8.46
2022-12-20T10:33:31.715Z,8.60
2022-12-20T10:36:19.669Z,8.56
2022-12-20T10:38:49.084Z,8.51
2022-12-20T10:41:21.926Z,8.53
2022-12-20T10:44:02.602Z,8.44
2022-12-20T10:46:41.669Z,8.47
2022-12-20T10:49:35.323Z,8.54
2022-12-20T10:52:03.543Z,8.56
2022-12-20T10:54:41.764Z,8.59
2022-12-20T10:57:22.988Z,8.50
2022-12-20T11:00:02.715Z,8.53
2022-12-20T11:02:40.591Z,8.53
2022-12-20T11:05:10.644Z,8.57
2022-12-20T11:08:24.693Z,8.63
2022-12-20T11:10:37.736Z,8.61
2022-12-20T11:13:04.369Z,8.69
2022-12-20T11:15:34.671Z,8.62
2022-12-20T11:18:01.341Z,8.71
2022-12-20T11:21:11.105Z,8.68
2022-12-20T11:24:08.644Z,8.54
2022-12-20T11:27:15.826Z,8.76
2022-12-20T11:30:10.404Z,8.75
2022-12-20T11:32:52.534Z,8.77
2022-12-20T11:35:36.442Z,8.65
2022-12-20T11:38:24.317Z,8.71
2022-12-20T11:41:08.648Z,8.60
2022-12-20T11:44:22.749Z,8.77
2022-12-20T11:46:53.241Z,8.66
2022-12-20T11:49:37.607Z,8.65
2022-12-20T11:52:28.803Z,8.67
2022-12-20T11:55:21.255Z,8.51
2022-12-20T11:58:19.325Z,8.65
2022-12-20T12:00:53.698Z,8.66
2022-12-20T12:03:36.870Z,8.60
2022-12-20T12:06:20.569Z,8.67
2022-12-20T12:09:05.056Z,8.68
2022-12-20T12:14:55.149Z,8.74
2022-12-20T12:17:29.571Z,8.77
2022-12-20T12:20:09.255Z,8.75
2022-12-20T12:22:39.020Z,8.72
2022-12-20T12:25:11.357Z,8.67
2022-12-20T12:27:38.673Z,8.68
2022-12-20T12:30:06.016Z,8.68
2022-12-20T12:32:46.654Z,8.66
2022-12-20T12:35:47.151Z,8.75
2022-12-20T12:38:38.228Z,8.65
2022-12-20T12:41:23.403Z,8.77
2022-12-20T12:43:53.980Z,8.66
2022-12-20T12:46:35.057Z,8.83
2022-12-20T12:49:22.634Z,8.73
2022-12-20T12:51:58.638Z,8.71
2022-12-20T12:54:45.476Z,8.76
2022-12-20T12:57:14.975Z,8.67
2022-12-20T12:59:47.146Z,8.66
2022-12-20T13:02:13.852Z,8.73
2022-12-20T13:04:56.835Z,8.74
2022-12-20T13:07:32.740Z,8.74
2022-12-20T13:10:00.671Z,8.73
2022-12-20T13:12:39.058Z,8.72
2022-12-20T13:15:21.140Z,8.72
2022-12-20T13:17:51.581Z,8.80
2022-12-20T13:21:04.055Z,8.73
2022-12-20T13:23:30.570Z,8.60
2022-12-20T13:25:59.356Z,8.75
2022-12-20T13:28:25.701Z,8.70
2022-12-20T13:31:01.080Z,8.79
2022-12-20T13:33:48.305Z,8.71
2022-12-20T13:36:17.737Z,8.72
2022-12-20T13:38:55.982Z,8.79
2022-12-20T13:41:45.562Z,8.78
2022-12-20T13:44:14.761Z,8.72
2022-12-20T13:46:47.849Z,8.72
2022-12-20T13:49:32.139Z,8.74
2022-12-20T13:52:28.777Z,8.74
2022-12-20T13:55:15.966Z,8.81
2022-12-20T13:57:46.060Z,8.86
2022-12-20T14:00:18.764Z,8.81
2022-12-20T14:02:45.846Z,8.86
2022-12-20T14:05:15.263Z,8.78
2022-12-20T14:07:43.347Z,8.78
2022-12-20T14:10:23.261Z,8.75
2022-12-20T14:12:54.528Z,8.77
2022-12-20T14:15:33.147Z,8.76
2022-12-20T14:18:24.776Z,8.84
2022-12-20T14:20:58.916Z,8.78
2022-12-20T14:23:34.938Z,8.83
2022-12-20T14:26:02.666Z,8.76
2022-12-20T14:28:35.865Z,8.82
2022-12-20T14:31:04.586Z,8.77
2022-12-20T14:33:36.942Z,8.75
2022-12-20T14:36:15.582Z,8.76
2022-12-20T14:38:44.012Z,8.80
2022-12-20T14:41:42.576Z,8.71
2022-12-20T14:44:21.586Z,8.77
2022-12-20T14:46:56.765Z,8.76
2022-12-20T14:49:36.547Z,8.73
2022-12-20T14:52:18.006Z,8.69
2022-12-20T14:55:12.920Z,8.71
2022-12-20T14:57:51.345Z,8.68
2022-12-20T15:00:17.772Z,8.70
2022-12-20T15:02:52.765Z,8.71
2022-12-20T15:05:40.551Z,8.73
2022-12-20T15:08:33.450Z,8.71
2022-12-20T15:11:01.505Z,8.72
2022-12-20T15:13:42.561Z,8.67
2022-12-20T15:16:21.147Z,8.68
2022-12-20T15:19:08.579Z,8.66
2022-12-20T15:21:41.024Z,8.67
2022-12-20T15:24:14.391Z,8.63
2022-12-20T15:26:41.527Z,8.65
2022-12-20T15:29:15.493Z,8.62
2022-12-20T15:31:42.176Z,8.63
2022-12-20T15:34:32.346Z,8.55
2022-12-20T15:37:00.216Z,8.64
2022-12-20T15:39:27.727Z,8.66
2022-12-20T15:41:54.791Z,8.68
2022-12-20T15:44:24.446Z,8.63
2022-12-20T15:46:51.552Z,8.65
2022-12-20T15:49:24.211Z,8.56
2022-12-20T15:51:52.651Z,8.73
2022-12-20T15:54:27.333Z,8.73
2022-12-20T15:56:55.367Z,8.66
2022-12-20T15:59:58.345Z,8.66
2022-12-20T16:02:21.966Z,8.73
2022-12-20T16:04:48.656Z,8.67
2022-12-20T16:07:16.768Z,8.56
2022-12-20T16:09:43.451Z,8.64
2022-12-20T16:12:32.552Z,8.63
2022-12-20T16:14:59.260Z,8.62
2022-12-20T16:17:25.770Z,8.63
2022-12-20T16:19:52.415Z,8.58
2022-12-20T16:22:22.368Z,8.63
2022-12-20T16:24:49.511Z,8.64
2022-12-20T16:27:16.085Z,8.60
2022-12-20T16:29:42.729Z,8.57
2022-12-20T16:32:21.565Z,8.60
2022-12-20T16:34:51.475Z,8.63
2022-12-20T16:37:18.533Z,8.64
2022-12-20T16:39:45.193Z,8.60
2022-12-20T16:42:16.852Z,8.63
2022-12-20T16:44:45.337Z,8.57
2022-12-20T16:47:12.491Z,8.56
2022-12-20T16:49:39.037Z,8.60
2022-12-20T16:52:06.759Z,8.58
2022-12-20T16:54:33.321Z,8.52
2022-12-20T16:56:59.804Z,8.52
2022-12-20T16:59:26.400Z,8.53
2022-12-20T17:01:55.681Z,8.50
2022-12-20T17:04:23.443Z,8.55
2022-12-20T17:06:50.312Z,8.56
2022-12-20T17:12:04.301Z,8.53
2022-12-20T17:14:31.061Z,8.50
2022-12-20T17:16:57.568Z,8.50
2022-12-20T17:19:24.003Z,8.48
2022-12-20T17:24:34.757Z,8.51
2022-12-20T17:27:01.273Z,8.51
2022-12-20T17:29:27.786Z,8.52
2022-12-20T17:31:54.363Z,8.52
2022-12-20T17:34:24.655Z,8.52
2022-12-20T17:36:54.308Z,8.49
2022-12-20T17:39:21.775Z,8.48
2022-12-20T17:41:51.623Z,8.52
2022-12-20T17:44:21.620Z,8.47
2022-12-20T17:46:48.538Z,8.49
2022-12-20T17:49:16.069Z,8.53
2022-12-20T17:51:42.978Z,8.48
2022-12-20T17:54:17.918Z,8.49
2022-12-20T17:56:45.386Z,8.45
2022-12-20T17:59:12.950Z,8.41
2022-12-20T18:01:40.812Z,8.44
2022-12-20T18:04:11.367Z,8.46
2022-12-20T18:06:39.721Z,8.43
2022-12-20T18:09:27.364Z,8.41
2022-12-20T18:11:54.196Z,8.30
2022-12-20T18:14:20.583Z,8.38
2022-12-20T18:16:47.518Z,8.33
2022-12-20T18:19:18.455Z,8.30
2022-12-20T18:21:45.534Z,8.31
2022-12-20T18:24:14.296Z,8.32
2022-12-20T18:26:41.824Z,8.30
2022-12-20T18:29:09.562Z,8.26
2022-12-20T18:31:36.174Z,8.27
2022-12-20T18:34:03.345Z,8.23
2022-12-20T18:36:35.139Z,8.23
2022-12-20T18:39:04.522Z,8.24
2022-12-20T18:41:32.250Z,8.19
2022-12-20T18:44:01.070Z,8.17
2022-12-20T18:46:28.699Z,8.18
2022-12-20T18:48:56.696Z,8.13
2022-12-20T18:51:26.203Z,8.10
2022-12-20T18:53:55.640Z,8.12
2022-12-20T18:56:36.535Z,8.00
2022-12-20T18:59:10.680Z,8.01
2022-12-20T19:01:38.991Z,8.00
2022-12-20T19:04:07.308Z,7.98
2022-12-20T19:06:34.539Z,7.92
2022-12-20T19:09:06.329Z,7.89
2022-12-20T19:11:33.672Z,7.90
2022-12-20T19:14:00.449Z,7.90
2022-12-20T19:16:30.452Z,7.90
2022-12-20T19:18:58.492Z,7.89
2022-12-20T19:21:30.551Z,7.90
2022-12-20T19:23:59.504Z,7.91
2022-12-20T19:26:28.210Z,7.91
2022-12-20T19:28:55.557Z,7.90
2022-12-20T19:31:25.139Z,7.86
2022-12-20T19:33:57.321Z,7.85
2022-12-20T19:36:30.851Z,7.85
2022-12-20T19:38:59.542Z,7.90
2022-12-20T19:41:29.050Z,7.86
2022-12-20T19:43:56.424Z,7.84
2022-12-20T19:46:29.450Z,7.78
2022-12-20T19:48:58.607Z,7.72
2022-12-20T19:51:26.239Z,7.71
2022-12-20T19:53:54.020Z,7.70
2022-12-20T19:56:23.059Z,7.68
2022-12-20T19:58:49.841Z,7.64
2022-12-20T20:01:18.437Z,7.67
2022-12-20T20:03:45.711Z,7.68
2022-12-20T20:06:12.989Z,7.66
2022-12-20T20:08:40.353Z,7.59
2022-12-20T20:11:09.722Z,7.54
2022-12-20T20:13:38.037Z,7.54
2022-12-20T20:16:05.864Z,7.61
2022-12-20T20:18:36.776Z,7.53
2022-12-20T20:21:14.455Z,7.54
2022-12-20T20:23:41.017Z,7.50
2022-12-20T20:26:10.908Z,7.51
2022-12-20T20:28:44.450Z,7.50
2022-12-20T20:31:13.986Z,7.52
2022-12-20T20:33:40.925Z,7.45
2022-12-20T20:36:07.806Z,7.52
2022-12-20T20:38:35.158Z,7.51
2022-12-20T20:41:01.863Z,7.49
2022-12-20T20:43:29.765Z,7.38
2022-12-20T20:45:56.711Z,7.38
2022-12-20T20:48:23.262Z,7.45
2022-12-20T20:50:49.662Z,7.47
2022-12-20T20:53:16.268Z,7.44
2022-12-20T20:55:42.833Z,7.47
2022-12-20T20:58:09.549Z,7.41
2022-12-20T21:00:36.481Z,7.49
2022-12-20T21:03:03.337Z,7.49
2022-12-20T21:08:16.788Z,7.46
2022-12-20T21:10:43.378Z,7.42
2022-12-20T21:13:09.902Z,7.41
2022-12-20T21:15:36.937Z,7.33
2022-12-20T21:18:03.344Z,7.27
2022-12-20T21:20:29.823Z,7.22
2022-12-20T21:22:57.291Z,7.22
2022-12-20T21:25:23.877Z,7.20
2022-12-20T21:27:50.358Z,7.17
2022-12-20T21:30:17.489Z,7.17
2022-12-20T21:32:43.892Z,7.19
2022-12-20T21:35:10.896Z,7.17
2022-12-20T21:37:37.378Z,7.16
2022-12-20T21:40:04.789Z,7.14
2022-12-20T21:42:31.496Z,7.22
2022-12-20T21:44:57.933Z,7.18
2022-12-20T21:47:24.785Z,7.16
2022-12-20T21:49:51.467Z,7.18
2022-12-20T21:52:17.893Z,7.16
2022-12-20T21:54:44.391Z,7.08
2022-12-20T21:57:11.221Z,7.04
2022-12-20T21:59:38.383Z,6.96
2022-12-20T22:02:05.259Z,6.82
2022-12-20T22:04:33.588Z,6.78
2022-12-20T22:07:00.023Z,6.72
2022-12-20T22:09:26.609Z,6.68
2022-12-20T22:11:53.190Z,6.72
2022-12-20T22:14:19.874Z,6.80
2022-12-20T22:16:46.456Z,6.85
2022-12-20T22:19:14.697Z,6.89
2022-12-20T22:21:41.710Z,6.94
2022-12-20T22:24:09.007Z,6.95
2022-12-20T22:26:36.866Z,6.87
2022-12-20T22:29:05.877Z,6.82
2022-12-20T22:31:32.942Z,6.77
2022-12-20T22:34:00.388Z,6.71
2022-12-20T22:36:27.463Z,6.56
2022-12-20T22:38:55.339Z,6.67
2022-12-20T22:41:24.553Z,6.63
2022-12-20T22:43:50.990Z,6.67
2022-12-20T22:49:02.539Z,6.77
2022-12-20T22:51:31.027Z,6.79
2022-12-20T22:53:58.722Z,6.77
2022-12-20T22:56:25.341Z,6.86
2022-12-20T22:58:51.804Z,6.85
2022-12-20T23:01:20.762Z,6.81
2022-12-20T23:03:48.219Z,6.81
2022-12-20T23:06:17.563Z,6.74
2022-12-20T23:08:44.093Z,6.74
2022-12-20T23:11:43.537Z,6.69
2022-12-20T23:14:34.411Z,6.74
2022-12-20T23:17:02.377Z,6.76
2022-12-20T23:19:49.215Z,6.79
2022-12-20T23:22:34.039Z,6.78
2022-12-20T23:25:01.447Z,6.81
2022-12-20T23:27:27.835Z,6.81
2022-12-20T23:29:54.205Z,6.77
2022-12-20T23:32:20.638Z,6.73
2022-12-20T23:34:47.015Z,6.61
2022-12-20T23:37:13.403Z,6.69
2022-12-20T23:39:39.766Z,6.65
2022-12-20T23:42:06.973Z,6.61
2022-12-20T23:44:33.474Z,6.55
2022-12-20T23:46:59.869Z,6.50
2022-12-20T23:49:27.305Z,6.49
2022-12-20T23:51:53.668Z,6.44
2022-12-20T23:54:21.437Z,6.35
2022-12-20T23:56:48.501Z,6.37
2022-12-20T23:59:15.599Z,6.37
